sensor_id;sensor_type;location;lat;lon;timestamp;P1;durP1;ratioP1;P2;durP2;ratioP2
9142;SDS011;54072;47.410;8.446;2023-04-24T00:00:38;2.70;;;0.70;;
9142;SDS011;54072;47.410;8.446;2023-04-24T00:03:07;0.70;;;0.70;;
9142;SDS011;54072;47.410;8.446;2023-04-24T00:05:34;0.60;;;0.60;;
9142;SDS011;54072;47.410;8.446;2023-04-24T00:08:02;0.90;;;0.70;;
9142;SDS011;54072;47.410;8.446;2023-04-24T00:10:29;0.70;;;0.70;;
9142;SDS011;54072;47.410;8.446;2023-04-24T00:12:58;0.73;;;0.70;;
9142;SDS011;54072;47.410;8.446;2023-04-24T00:15:26;0.70;;;0.70;;
9142;SDS011;54072;47.410;8.446;2023-04-24T00:17:54;0.40;;;0.40;;
9142;SDS011;54072;47.410;8.446;2023-04-24T00:20:21;0.77;;;0.60;;
9142;SDS011;54072;47.410;8.446;2023-04-24T00:22:49;0.93;;;0.70;;
9142;SDS011;54072;47.410;8.446;2023-04-24T00:25:16;0.93;;;0.40;;
9142;SDS011;54072;47.410;8.446;2023-04-24T00:27:44;0.40;;;0.40;;
9142;SDS011;54072;47.410;8.446;2023-04-24T00:30:12;0.40;;;0.40;;
9142;SDS011;54072;47.410;8.446;2023-04-24T00:32:40;0.83;;;0.50;;
9142;SDS011;54072;47.410;8.446;2023-04-24T00:35:08;0.70;;;0.70;;
9142;SDS011;54072;47.410;8.446;2023-04-24T00:37:36;1.50;;;0.57;;
9142;SDS011;54072;47.410;8.446;2023-04-24T00:40:04;0.70;;;0.70;;
9142;SDS011;54072;47.410;8.446;2023-04-24T00:42:32;0.50;;;0.50;;
9142;SDS011;54072;47.410;8.446;2023-04-24T00:45:00;0.40;;;0.40;;
9142;SDS011;54072;47.410;8.446;2023-04-24T00:47:29;0.90;;;0.40;;
9142;SDS011;54072;47.410;8.446;2023-04-24T00:49:57;0.77;;;0.40;;
9142;SDS011;54072;47.410;8.446;2023-04-24T00:52:24;0.50;;;0.50;;
9142;SDS011;54072;47.410;8.446;2023-04-24T00:54:52;0.67;;;0.50;;
9142;SDS011;54072;47.410;8.446;2023-04-24T00:57:20;2.43;;;0.43;;
9142;SDS011;54072;47.410;8.446;2023-04-24T00:59:50;0.40;;;0.40;;
9142;SDS011;54072;47.410;8.446;2023-04-24T01:02:17;1.17;;;0.47;;
9142;SDS011;54072;47.410;8.446;2023-04-24T01:04:47;0.30;;;0.30;;
9142;SDS011;54072;47.410;8.446;2023-04-24T01:07:15;0.77;;;0.30;;
9142;SDS011;54072;47.410;8.446;2023-04-24T01:09:43;0.97;;;0.40;;
9142;SDS011;54072;47.410;8.446;2023-04-24T01:12:13;0.40;;;0.40;;
9142;SDS011;54072;47.410;8.446;2023-04-24T01:14:41;0.77;;;0.30;;
9142;SDS011;54072;47.410;8.446;2023-04-24T01:17:09;0.50;;;0.50;;
9142;SDS011;54072;47.410;8.446;2023-04-24T01:19:37;0.40;;;0.40;;
9142;SDS011;54072;47.410;8.446;2023-04-24T01:22:09;0.40;;;0.40;;
9142;SDS011;54072;47.410;8.446;2023-04-24T01:24:37;2.53;;;0.50;;
9142;SDS011;54072;47.410;8.446;2023-04-24T01:27:05;0.53;;;0.50;;
9142;SDS011;54072;47.410;8.446;2023-04-24T01:29:33;0.40;;;0.40;;
9142;SDS011;54072;47.410;8.446;2023-04-24T01:32:01;0.40;;;0.40;;
9142;SDS011;54072;47.410;8.446;2023-04-24T01:34:29;0.47;;;0.40;;
9142;SDS011;54072;47.410;8.446;2023-04-24T01:36:56;0.37;;;0.37;;
9142;SDS011;54072;47.410;8.446;2023-04-24T01:39:25;0.40;;;0.40;;
9142;SDS011;54072;47.410;8.446;2023-04-24T01:41:54;0.50;;;0.47;;
9142;SDS011;54072;47.410;8.446;2023-04-24T01:44:22;0.37;;;0.37;;
9142;SDS011;54072;47.410;8.446;2023-04-24T01:46:50;0.40;;;0.40;;
9142;SDS011;54072;47.410;8.446;2023-04-24T01:49:17;0.40;;;0.40;;
9142;SDS011;54072;47.410;8.446;2023-04-24T01:51:45;1.57;;;0.40;;
9142;SDS011;54072;47.410;8.446;2023-04-24T01:54:12;0.50;;;0.50;;
9142;SDS011;54072;47.410;8.446;2023-04-24T01:56:42;0.37;;;0.37;;
9142;SDS011;54072;47.410;8.446;2023-04-24T01:59:10;0.40;;;0.40;;
9142;SDS011;54072;47.410;8.446;2023-04-24T02:01:38;0.50;;;0.50;;
9142;SDS011;54072;47.410;8.446;2023-04-24T02:04:06;1.00;;;0.40;;
9142;SDS011;54072;47.410;8.446;2023-04-24T02:06:33;0.30;;;0.30;;
9142;SDS011;54072;47.410;8.446;2023-04-24T02:09:01;1.70;;;0.40;;
9142;SDS011;54072;47.410;8.446;2023-04-24T02:11:30;0.53;;;0.27;;
9142;SDS011;54072;47.410;8.446;2023-04-24T02:13:59;0.20;;;0.20;;
9142;SDS011;54072;47.410;8.446;2023-04-24T02:16:27;0.30;;;0.30;;
9142;SDS011;54072;47.410;8.446;2023-04-24T02:18:56;0.30;;;0.30;;
9142;SDS011;54072;47.410;8.446;2023-04-24T02:21:24;0.30;;;0.30;;
9142;SDS011;54072;47.410;8.446;2023-04-24T02:23:51;0.50;;;0.40;;
9142;SDS011;54072;47.410;8.446;2023-04-24T02:26:19;0.30;;;0.30;;
9142;SDS011;54072;47.410;8.446;2023-04-24T02:28:46;1.10;;;0.30;;
9142;SDS011;54072;47.410;8.446;2023-04-24T02:31:15;0.37;;;0.20;;
9142;SDS011;54072;47.410;8.446;2023-04-24T02:33:43;0.43;;;0.43;;
9142;SDS011;54072;47.410;8.446;2023-04-24T02:36:10;0.30;;;0.30;;
9142;SDS011;54072;47.410;8.446;2023-04-24T02:38:39;0.30;;;0.30;;
9142;SDS011;54072;47.410;8.446;2023-04-24T02:41:06;0.27;;;0.27;;
9142;SDS011;54072;47.410;8.446;2023-04-24T02:43:34;0.30;;;0.30;;
9142;SDS011;54072;47.410;8.446;2023-04-24T02:46:02;0.40;;;0.40;;
9142;SDS011;54072;47.410;8.446;2023-04-24T02:48:30;0.63;;;0.40;;
9142;SDS011;54072;47.410;8.446;2023-04-24T02:50:58;0.60;;;0.40;;
9142;SDS011;54072;47.410;8.446;2023-04-24T02:53:26;0.60;;;0.60;;
9142;SDS011;54072;47.410;8.446;2023-04-24T02:55:53;0.40;;;0.40;;
9142;SDS011;54072;47.410;8.446;2023-04-24T02:58:21;0.50;;;0.50;;
9142;SDS011;54072;47.410;8.446;2023-04-24T03:00:48;1.97;;;0.37;;
9142;SDS011;54072;47.410;8.446;2023-04-24T03:03:16;0.30;;;0.30;;
9142;SDS011;54072;47.410;8.446;2023-04-24T03:05:45;0.40;;;0.40;;
9142;SDS011;54072;47.410;8.446;2023-04-24T03:08:13;1.40;;;0.30;;
9142;SDS011;54072;47.410;8.446;2023-04-24T03:10:41;0.30;;;0.30;;
9142;SDS011;54072;47.410;8.446;2023-04-24T03:13:09;0.40;;;0.40;;
9142;SDS011;54072;47.410;8.446;2023-04-24T03:15:36;0.30;;;0.30;;
9142;SDS011;54072;47.410;8.446;2023-04-24T03:18:04;0.40;;;0.40;;
9142;SDS011;54072;47.410;8.446;2023-04-24T03:20:31;0.30;;;0.30;;
9142;SDS011;54072;47.410;8.446;2023-04-24T03:23:00;0.63;;;0.43;;
9142;SDS011;54072;47.410;8.446;2023-04-24T03:25:29;0.40;;;0.40;;
9142;SDS011;54072;47.410;8.446;2023-04-24T03:27:56;0.93;;;0.50;;
9142;SDS011;54072;47.410;8.446;2023-04-24T03:30:24;0.57;;;0.40;;
9142;SDS011;54072;47.410;8.446;2023-04-24T03:32:51;0.77;;;0.50;;
9142;SDS011;54072;47.410;8.446;2023-04-24T03:35:19;0.43;;;0.43;;
9142;SDS011;54072;47.410;8.446;2023-04-24T03:37:47;0.30;;;0.30;;
9142;SDS011;54072;47.410;8.446;2023-04-24T03:40:16;0.43;;;0.40;;
9142;SDS011;54072;47.410;8.446;2023-04-24T03:42:44;2.47;;;0.70;;
9142;SDS011;54072;47.410;8.446;2023-04-24T03:45:11;1.70;;;0.50;;
9142;SDS011;54072;47.410;8.446;2023-04-24T03:47:39;1.17;;;1.17;;
9142;SDS011;54072;47.410;8.446;2023-04-24T03:50:06;0.80;;;0.80;;
9142;SDS011;54072;47.410;8.446;2023-04-24T03:52:34;0.50;;;0.50;;
9142;SDS011;54072;47.410;8.446;2023-04-24T03:55:02;0.40;;;0.40;;
9142;SDS011;54072;47.410;8.446;2023-04-24T03:57:31;0.53;;;0.40;;
9142;SDS011;54072;47.410;8.446;2023-04-24T03:59:59;0.30;;;0.30;;
9142;SDS011;54072;47.410;8.446;2023-04-24T04:02:30;0.63;;;0.40;;
9142;SDS011;54072;47.410;8.446;2023-04-24T04:04:57;0.67;;;0.50;;
9142;SDS011;54072;47.410;8.446;2023-04-24T04:07:25;0.57;;;0.57;;
9142;SDS011;54072;47.410;8.446;2023-04-24T04:09:53;0.50;;;0.50;;
9142;SDS011;54072;47.410;8.446;2023-04-24T04:12:21;0.50;;;0.50;;
9142;SDS011;54072;47.410;8.446;2023-04-24T04:14:49;0.83;;;0.50;;
9142;SDS011;54072;47.410;8.446;2023-04-24T04:17:17;0.57;;;0.57;;
9142;SDS011;54072;47.410;8.446;2023-04-24T04:19:45;1.77;;;0.60;;
9142;SDS011;54072;47.410;8.446;2023-04-24T04:22:12;0.20;;;0.20;;
9142;SDS011;54072;47.410;8.446;2023-04-24T04:24:40;0.33;;;0.33;;
9142;SDS011;54072;47.410;8.446;2023-04-24T04:27:07;0.30;;;0.30;;
9142;SDS011;54072;47.410;8.446;2023-04-24T04:29:35;0.47;;;0.47;;
9142;SDS011;54072;47.410;8.446;2023-04-24T04:32:04;0.97;;;0.50;;
9142;SDS011;54072;47.410;8.446;2023-04-24T04:34:32;0.70;;;0.50;;
9142;SDS011;54072;47.410;8.446;2023-04-24T04:36:59;0.57;;;0.57;;
9142;SDS011;54072;47.410;8.446;2023-04-24T04:39:28;0.67;;;0.53;;
9142;SDS011;54072;47.410;8.446;2023-04-24T04:41:56;0.50;;;0.50;;
9142;SDS011;54072;47.410;8.446;2023-04-24T04:44:24;0.83;;;0.83;;
9142;SDS011;54072;47.410;8.446;2023-04-24T04:46:54;2.73;;;0.70;;
9142;SDS011;54072;47.410;8.446;2023-04-24T04:49:24;1.53;;;0.50;;
9142;SDS011;54072;47.410;8.446;2023-04-24T04:51:54;0.53;;;0.53;;
9142;SDS011;54072;47.410;8.446;2023-04-24T04:54:22;1.03;;;0.80;;
9142;SDS011;54072;47.410;8.446;2023-04-24T04:56:50;0.67;;;0.67;;
9142;SDS011;54072;47.410;8.446;2023-04-24T04:59:17;0.90;;;0.90;;
9142;SDS011;54072;47.410;8.446;2023-04-24T05:01:45;1.67;;;1.17;;
9142;SDS011;54072;47.410;8.446;2023-04-24T05:04:12;3.23;;;1.07;;
9142;SDS011;54072;47.410;8.446;2023-04-24T05:06:41;1.10;;;0.93;;
9142;SDS011;54072;47.410;8.446;2023-04-24T05:09:09;0.83;;;0.83;;
9142;SDS011;54072;47.410;8.446;2023-04-24T05:11:36;1.87;;;1.10;;
9142;SDS011;54072;47.410;8.446;2023-04-24T05:14:04;3.57;;;1.13;;
9142;SDS011;54072;47.410;8.446;2023-04-24T05:16:31;2.00;;;1.20;;
9142;SDS011;54072;47.410;8.446;2023-04-24T05:18:59;2.27;;;1.50;;
9142;SDS011;54072;47.410;8.446;2023-04-24T05:21:27;1.17;;;1.07;;
9142;SDS011;54072;47.410;8.446;2023-04-24T05:23:55;2.37;;;1.40;;
9142;SDS011;54072;47.410;8.446;2023-04-24T05:26:23;1.87;;;1.47;;
9142;SDS011;54072;47.410;8.446;2023-04-24T05:28:50;2.13;;;1.23;;
9142;SDS011;54072;47.410;8.446;2023-04-24T05:31:18;2.20;;;1.40;;
9142;SDS011;54072;47.410;8.446;2023-04-24T05:33:46;1.20;;;1.10;;
9142;SDS011;54072;47.410;8.446;2023-04-24T05:36:13;1.30;;;1.20;;
9142;SDS011;54072;47.410;8.446;2023-04-24T05:38:41;3.37;;;1.40;;
9142;SDS011;54072;47.410;8.446;2023-04-24T05:41:10;1.50;;;1.40;;
9142;SDS011;54072;47.410;8.446;2023-04-24T05:43:37;2.57;;;1.67;;
9142;SDS011;54072;47.410;8.446;2023-04-24T05:46:05;3.30;;;2.43;;
9142;SDS011;54072;47.410;8.446;2023-04-24T05:48:32;1.40;;;1.30;;
9142;SDS011;54072;47.410;8.446;2023-04-24T05:51:00;1.37;;;1.27;;
9142;SDS011;54072;47.410;8.446;2023-04-24T05:53:27;1.43;;;1.33;;
9142;SDS011;54072;47.410;8.446;2023-04-24T05:55:55;1.93;;;1.40;;
9142;SDS011;54072;47.410;8.446;2023-04-24T05:58:24;1.50;;;1.40;;
9142;SDS011;54072;47.410;8.446;2023-04-24T06:00:51;4.37;;;1.50;;
9142;SDS011;54072;47.410;8.446;2023-04-24T06:03:19;3.50;;;1.50;;
9142;SDS011;54072;47.410;8.446;2023-04-24T06:05:47;1.93;;;1.67;;
9142;SDS011;54072;47.410;8.446;2023-04-24T06:08:14;1.43;;;1.33;;
9142;SDS011;54072;47.410;8.446;2023-04-24T06:10:42;2.03;;;1.40;;
9142;SDS011;54072;47.410;8.446;2023-04-24T06:13:09;1.70;;;1.43;;
9142;SDS011;54072;47.410;8.446;2023-04-24T06:15:38;1.43;;;1.33;;
9142;SDS011;54072;47.410;8.446;2023-04-24T06:18:06;1.70;;;1.50;;
9142;SDS011;54072;47.410;8.446;2023-04-24T06:20:36;1.20;;;1.10;;
9142;SDS011;54072;47.410;8.446;2023-04-24T06:23:03;2.27;;;1.30;;
9142;SDS011;54072;47.410;8.446;2023-04-24T06:25:31;1.00;;;1.00;;
9142;SDS011;54072;47.410;8.446;2023-04-24T06:27:58;1.37;;;0.93;;
9142;SDS011;54072;47.410;8.446;2023-04-24T06:30:26;1.00;;;1.00;;
9142;SDS011;54072;47.410;8.446;2023-04-24T06:32:55;1.47;;;1.00;;
9142;SDS011;54072;47.410;8.446;2023-04-24T06:35:25;1.50;;;1.13;;
9142;SDS011;54072;47.410;8.446;2023-04-24T06:37:53;1.30;;;1.20;;
9142;SDS011;54072;47.410;8.446;2023-04-24T06:40:22;1.03;;;1.00;;
9142;SDS011;54072;47.410;8.446;2023-04-24T06:42:50;1.13;;;0.93;;
9142;SDS011;54072;47.410;8.446;2023-04-24T06:45:18;1.00;;;1.00;;
9142;SDS011;54072;47.410;8.446;2023-04-24T06:47:46;0.90;;;0.90;;
9142;SDS011;54072;47.410;8.446;2023-04-24T06:50:15;1.00;;;1.00;;
9142;SDS011;54072;47.410;8.446;2023-04-24T06:52:44;0.90;;;0.90;;
9142;SDS011;54072;47.410;8.446;2023-04-24T06:55:12;1.00;;;1.00;;
9142;SDS011;54072;47.410;8.446;2023-04-24T06:57:42;0.90;;;0.90;;
9142;SDS011;54072;47.410;8.446;2023-04-24T07:00:10;0.90;;;0.90;;
9142;SDS011;54072;47.410;8.446;2023-04-24T07:02:38;1.00;;;1.00;;
9142;SDS011;54072;47.410;8.446;2023-04-24T07:05:06;1.07;;;1.07;;
9142;SDS011;54072;47.410;8.446;2023-04-24T07:07:35;1.10;;;1.00;;
9142;SDS011;54072;47.410;8.446;2023-04-24T07:10:04;2.40;;;1.30;;
9142;SDS011;54072;47.410;8.446;2023-04-24T07:12:32;1.80;;;1.20;;
9142;SDS011;54072;47.410;8.446;2023-04-24T07:14:59;1.07;;;0.90;;
9142;SDS011;54072;47.410;8.446;2023-04-24T07:17:27;1.03;;;1.03;;
9142;SDS011;54072;47.410;8.446;2023-04-24T07:19:54;1.50;;;1.10;;
9142;SDS011;54072;47.410;8.446;2023-04-24T07:22:22;1.60;;;1.20;;
9142;SDS011;54072;47.410;8.446;2023-04-24T07:24:51;1.30;;;1.20;;
9142;SDS011;54072;47.410;8.446;2023-04-24T07:27:18;1.80;;;1.10;;
9142;SDS011;54072;47.410;8.446;2023-04-24T07:29:46;1.37;;;1.20;;
9142;SDS011;54072;47.410;8.446;2023-04-24T07:32:14;1.17;;;1.07;;
9142;SDS011;54072;47.410;8.446;2023-04-24T07:34:41;1.90;;;1.17;;
9142;SDS011;54072;47.410;8.446;2023-04-24T07:37:09;1.37;;;1.33;;
9142;SDS011;54072;47.410;8.446;2023-04-24T07:39:36;2.93;;;1.57;;
9142;SDS011;54072;47.410;8.446;2023-04-24T07:42:06;1.20;;;1.20;;
9142;SDS011;54072;47.410;8.446;2023-04-24T07:44:33;2.30;;;1.40;;
9142;SDS011;54072;47.410;8.446;2023-04-24T07:47:02;1.70;;;1.53;;
9142;SDS011;54072;47.410;8.446;2023-04-24T07:49:29;2.37;;;1.77;;
9142;SDS011;54072;47.410;8.446;2023-04-24T07:51:57;2.00;;;1.80;;
9142;SDS011;54072;47.410;8.446;2023-04-24T07:54:26;1.70;;;1.60;;
9142;SDS011;54072;47.410;8.446;2023-04-24T07:56:54;2.00;;;1.50;;
9142;SDS011;54072;47.410;8.446;2023-04-24T07:59:23;2.47;;;1.60;;
9142;SDS011;54072;47.410;8.446;2023-04-24T08:01:51;2.13;;;1.60;;
9142;SDS011;54072;47.410;8.446;2023-04-24T08:04:18;1.83;;;1.70;;
9142;SDS011;54072;47.410;8.446;2023-04-24T08:06:46;4.60;;;2.10;;
9142;SDS011;54072;47.410;8.446;2023-04-24T08:09:14;3.20;;;1.90;;
9142;SDS011;54072;47.410;8.446;2023-04-24T08:11:42;2.33;;;1.90;;
9142;SDS011;54072;47.410;8.446;2023-04-24T08:14:10;2.70;;;2.50;;
9142;SDS011;54072;47.410;8.446;2023-04-24T08:16:40;3.20;;;2.30;;
9142;SDS011;54072;47.410;8.446;2023-04-24T08:19:08;4.17;;;2.23;;
9142;SDS011;54072;47.410;8.446;2023-04-24T08:21:36;3.23;;;2.20;;
9142;SDS011;54072;47.410;8.446;2023-04-24T08:24:04;4.13;;;2.10;;
9142;SDS011;54072;47.410;8.446;2023-04-24T08:26:34;4.37;;;2.33;;
9142;SDS011;54072;47.410;8.446;2023-04-24T08:29:01;2.53;;;2.27;;
9142;SDS011;54072;47.410;8.446;2023-04-24T08:31:29;2.77;;;2.40;;
9142;SDS011;54072;47.410;8.446;2023-04-24T08:33:58;5.40;;;2.30;;
9142;SDS011;54072;47.410;8.446;2023-04-24T08:36:26;3.43;;;2.57;;
9142;SDS011;54072;47.410;8.446;2023-04-24T08:39:01;3.23;;;2.43;;
9142;SDS011;54072;47.410;8.446;2023-04-24T08:41:29;4.13;;;2.67;;
9142;SDS011;54072;47.410;8.446;2023-04-24T08:43:57;3.00;;;2.57;;
9142;SDS011;54072;47.410;8.446;2023-04-24T08:46:25;3.17;;;2.60;;
9142;SDS011;54072;47.410;8.446;2023-04-24T08:48:53;3.53;;;2.33;;
9142;SDS011;54072;47.410;8.446;2023-04-24T08:51:22;2.90;;;2.50;;
9142;SDS011;54072;47.410;8.446;2023-04-24T08:53:49;3.83;;;2.20;;
9142;SDS011;54072;47.410;8.446;2023-04-24T08:56:19;2.60;;;2.40;;
9142;SDS011;54072;47.410;8.446;2023-04-24T08:58:47;2.40;;;2.20;;
9142;SDS011;54072;47.410;8.446;2023-04-24T09:01:15;3.67;;;2.30;;
9142;SDS011;54072;47.410;8.446;2023-04-24T09:03:42;2.53;;;2.30;;
9142;SDS011;54072;47.410;8.446;2023-04-24T09:06:10;2.30;;;2.10;;
9142;SDS011;54072;47.410;8.446;2023-04-24T09:08:39;2.57;;;2.37;;
9142;SDS011;54072;47.410;8.446;2023-04-24T09:11:08;3.77;;;2.43;;
9142;SDS011;54072;47.410;8.446;2023-04-24T09:13:36;2.27;;;2.00;;
9142;SDS011;54072;47.410;8.446;2023-04-24T09:16:04;2.23;;;2.00;;
9142;SDS011;54072;47.410;8.446;2023-04-24T09:18:31;2.50;;;2.10;;
9142;SDS011;54072;47.410;8.446;2023-04-24T09:21:02;5.50;;;2.10;;
9142;SDS011;54072;47.410;8.446;2023-04-24T09:23:30;3.13;;;2.23;;
9142;SDS011;54072;47.410;8.446;2023-04-24T09:26:00;2.30;;;1.80;;
9142;SDS011;54072;47.410;8.446;2023-04-24T09:28:29;2.53;;;2.30;;
9142;SDS011;54072;47.410;8.446;2023-04-24T09:31:03;3.63;;;1.93;;
9142;SDS011;54072;47.410;8.446;2023-04-24T09:33:31;2.07;;;1.97;;
9142;SDS011;54072;47.410;8.446;2023-04-24T09:35:59;2.63;;;2.10;;
9142;SDS011;54072;47.410;8.446;2023-04-24T09:38:30;4.23;;;2.20;;
9142;SDS011;54072;47.410;8.446;2023-04-24T09:41:00;4.13;;;1.93;;
9142;SDS011;54072;47.410;8.446;2023-04-24T09:43:28;3.33;;;2.13;;
9142;SDS011;54072;47.410;8.446;2023-04-24T09:45:56;3.73;;;2.27;;
9142;SDS011;54072;47.410;8.446;2023-04-24T09:48:31;2.10;;;1.90;;
9142;SDS011;54072;47.410;8.446;2023-04-24T09:50:59;3.10;;;2.00;;
9142;SDS011;54072;47.410;8.446;2023-04-24T09:53:28;2.17;;;1.80;;
9142;SDS011;54072;47.410;8.446;2023-04-24T09:55:55;3.70;;;1.87;;
9142;SDS011;54072;47.410;8.446;2023-04-24T09:58:28;1.93;;;1.70;;
9142;SDS011;54072;47.410;8.446;2023-04-24T10:00:56;3.97;;;1.80;;
9142;SDS011;54072;47.410;8.446;2023-04-24T10:03:24;3.60;;;2.00;;
9142;SDS011;54072;47.410;8.446;2023-04-24T10:05:52;2.10;;;1.83;;
9142;SDS011;54072;47.410;8.446;2023-04-24T10:08:20;2.57;;;2.10;;
9142;SDS011;54072;47.410;8.446;2023-04-24T10:10:48;2.03;;;1.73;;
9142;SDS011;54072;47.410;8.446;2023-04-24T10:13:15;2.73;;;1.80;;
9142;SDS011;54072;47.410;8.446;2023-04-24T10:15:44;2.83;;;2.00;;
9142;SDS011;54072;47.410;8.446;2023-04-24T10:18:13;1.70;;;1.60;;
9142;SDS011;54072;47.410;8.446;2023-04-24T10:20:41;3.93;;;1.90;;
9142;SDS011;54072;47.410;8.446;2023-04-24T10:23:09;2.67;;;1.90;;
9142;SDS011;54072;47.410;8.446;2023-04-24T10:25:36;2.60;;;1.80;;
9142;SDS011;54072;47.410;8.446;2023-04-24T10:28:04;2.90;;;1.70;;
9142;SDS011;54072;47.410;8.446;2023-04-24T10:30:33;2.70;;;1.93;;
9142;SDS011;54072;47.410;8.446;2023-04-24T10:33:04;5.60;;;2.40;;
9142;SDS011;54072;47.410;8.446;2023-04-24T10:35:31;2.50;;;2.30;;
9142;SDS011;54072;47.410;8.446;2023-04-24T10:38:00;2.00;;;1.87;;
9142;SDS011;54072;47.410;8.446;2023-04-24T10:40:30;2.10;;;1.90;;
9142;SDS011;54072;47.410;8.446;2023-04-24T10:42:57;2.83;;;1.83;;
9142;SDS011;54072;47.410;8.446;2023-04-24T10:45:25;3.23;;;1.90;;
9142;SDS011;54072;47.410;8.446;2023-04-24T10:47:53;2.00;;;1.90;;
9142;SDS011;54072;47.410;8.446;2023-04-24T10:50:25;2.07;;;1.90;;
9142;SDS011;54072;47.410;8.446;2023-04-24T10:52:53;2.93;;;1.90;;
9142;SDS011;54072;47.410;8.446;2023-04-24T10:58:08;3.97;;;2.07;;
9142;SDS011;54072;47.410;8.446;2023-04-24T11:00:36;3.83;;;1.90;;
9142;SDS011;54072;47.410;8.446;2023-04-24T11:03:04;2.77;;;1.80;;
9142;SDS011;54072;47.410;8.446;2023-04-24T11:08:23;2.93;;;2.00;;
9142;SDS011;54072;47.410;8.446;2023-04-24T11:10:55;2.50;;;2.10;;
9142;SDS011;54072;47.410;8.446;2023-04-24T11:13:24;2.90;;;1.83;;
9142;SDS011;54072;47.410;8.446;2023-04-24T11:18:38;3.00;;;1.90;;
9142;SDS011;54072;47.410;8.446;2023-04-24T11:21:11;3.10;;;2.00;;
9142;SDS011;54072;47.410;8.446;2023-04-24T11:23:40;2.20;;;2.00;;
9142;SDS011;54072;47.410;8.446;2023-04-24T11:26:11;7.43;;;2.27;;
9142;SDS011;54072;47.410;8.446;2023-04-24T11:28:46;3.20;;;2.37;;
9142;SDS011;54072;47.410;8.446;2023-04-24T11:34:05;2.70;;;2.30;;
9142;SDS011;54072;47.410;8.446;2023-04-24T11:36:32;2.50;;;2.00;;
9142;SDS011;54072;47.410;8.446;2023-04-24T11:39:02;3.10;;;2.20;;
9142;SDS011;54072;47.410;8.446;2023-04-24T11:41:30;3.70;;;2.03;;
9142;SDS011;54072;47.410;8.446;2023-04-24T11:43:57;2.93;;;1.97;;
9142;SDS011;54072;47.410;8.446;2023-04-24T11:46:28;2.03;;;1.73;;
9142;SDS011;54072;47.410;8.446;2023-04-24T11:48:56;1.83;;;1.73;;
9142;SDS011;54072;47.410;8.446;2023-04-24T11:51:24;6.47;;;1.97;;
9142;SDS011;54072;47.410;8.446;2023-04-24T11:53:56;2.50;;;1.80;;
9142;SDS011;54072;47.410;8.446;2023-04-24T11:56:30;3.50;;;1.90;;
9142;SDS011;54072;47.410;8.446;2023-04-24T11:58:57;3.63;;;1.93;;
9142;SDS011;54072;47.410;8.446;2023-04-24T12:01:25;2.30;;;1.93;;
9142;SDS011;54072;47.410;8.446;2023-04-24T12:03:58;2.20;;;2.10;;
9142;SDS011;54072;47.410;8.446;2023-04-24T12:06:27;2.50;;;1.80;;
9142;SDS011;54072;47.410;8.446;2023-04-24T12:08:54;2.40;;;1.80;;
9142;SDS011;54072;47.410;8.446;2023-04-24T12:11:27;3.97;;;1.80;;
9142;SDS011;54072;47.410;8.446;2023-04-24T12:13:56;3.37;;;2.20;;
9142;SDS011;54072;47.410;8.446;2023-04-24T12:16:24;3.63;;;2.20;;
9142;SDS011;54072;47.410;8.446;2023-04-24T12:18:53;1.83;;;1.73;;
9142;SDS011;54072;47.410;8.446;2023-04-24T12:21:21;2.87;;;1.60;;
9142;SDS011;54072;47.410;8.446;2023-04-24T12:23:50;1.73;;;1.63;;
9142;SDS011;54072;47.410;8.446;2023-04-24T12:26:18;3.23;;;2.00;;
9142;SDS011;54072;47.410;8.446;2023-04-24T12:28:47;2.07;;;1.87;;
9142;SDS011;54072;47.410;8.446;2023-04-24T12:31:16;5.03;;;1.80;;
9142;SDS011;54072;47.410;8.446;2023-04-24T12:33:43;1.80;;;1.70;;
9142;SDS011;54072;47.410;8.446;2023-04-24T12:36:11;2.10;;;1.90;;
9142;SDS011;54072;47.410;8.446;2023-04-24T12:38:39;2.03;;;1.83;;
9142;SDS011;54072;47.410;8.446;2023-04-24T12:41:11;3.47;;;2.00;;
9142;SDS011;54072;47.410;8.446;2023-04-24T12:43:40;1.73;;;1.60;;
9142;SDS011;54072;47.410;8.446;2023-04-24T12:46:18;1.80;;;1.70;;
9142;SDS011;54072;47.410;8.446;2023-04-24T12:48:47;2.60;;;1.53;;
9142;SDS011;54072;47.410;8.446;2023-04-24T12:51:14;2.07;;;1.73;;
9142;SDS011;54072;47.410;8.446;2023-04-24T12:53:42;2.00;;;1.80;;
9142;SDS011;54072;47.410;8.446;2023-04-24T12:56:09;1.67;;;1.50;;
9142;SDS011;54072;47.410;8.446;2023-04-24T12:58:37;2.97;;;1.77;;
9142;SDS011;54072;47.410;8.446;2023-04-24T13:01:04;2.00;;;1.57;;
9142;SDS011;54072;47.410;8.446;2023-04-24T13:03:33;1.90;;;1.63;;
9142;SDS011;54072;47.410;8.446;2023-04-24T13:06:01;1.80;;;1.70;;
9142;SDS011;54072;47.410;8.446;2023-04-24T13:08:28;3.77;;;1.70;;
9142;SDS011;54072;47.410;8.446;2023-04-24T13:10:56;1.80;;;1.53;;
9142;SDS011;54072;47.410;8.446;2023-04-24T13:13:23;1.70;;;1.60;;
9142;SDS011;54072;47.410;8.446;2023-04-24T13:15:51;3.70;;;1.70;;
9142;SDS011;54072;47.410;8.446;2023-04-24T13:18:18;1.87;;;1.70;;
9142;SDS011;54072;47.410;8.446;2023-04-24T13:20:47;1.80;;;1.70;;
9142;SDS011;54072;47.410;8.446;2023-04-24T13:23:15;1.90;;;1.80;;
9142;SDS011;54072;47.410;8.446;2023-04-24T13:25:43;2.67;;;1.80;;
9142;SDS011;54072;47.410;8.446;2023-04-24T13:28:10;3.30;;;2.17;;
9142;SDS011;54072;47.410;8.446;2023-04-24T13:30:38;2.00;;;1.90;;
9142;SDS011;54072;47.410;8.446;2023-04-24T13:33:05;2.33;;;2.20;;
9142;SDS011;54072;47.410;8.446;2023-04-24T13:35:33;3.47;;;2.17;;
9142;SDS011;54072;47.410;8.446;2023-04-24T13:38:02;2.10;;;1.83;;
9142;SDS011;54072;47.410;8.446;2023-04-24T13:40:32;4.03;;;2.03;;
9142;SDS011;54072;47.410;8.446;2023-04-24T13:43:00;3.47;;;2.20;;
9142;SDS011;54072;47.410;8.446;2023-04-24T13:45:28;2.57;;;2.10;;
9142;SDS011;54072;47.410;8.446;2023-04-24T13:47:55;3.03;;;2.30;;
9142;SDS011;54072;47.410;8.446;2023-04-24T13:50:23;4.50;;;2.27;;
9142;SDS011;54072;47.410;8.446;2023-04-24T13:52:51;2.50;;;2.30;;
9142;SDS011;54072;47.410;8.446;2023-04-24T13:55:20;3.23;;;2.27;;
9142;SDS011;54072;47.410;8.446;2023-04-24T13:57:47;5.97;;;2.20;;
9142;SDS011;54072;47.410;8.446;2023-04-24T14:00:16;2.47;;;2.00;;
9142;SDS011;54072;47.410;8.446;2023-04-24T14:02:44;9.77;;;2.87;;
9142;SDS011;54072;47.410;8.446;2023-04-24T14:05:12;3.80;;;2.20;;
9142;SDS011;54072;47.410;8.446;2023-04-24T14:07:40;6.13;;;2.30;;
9142;SDS011;54072;47.410;8.446;2023-04-24T14:10:07;2.37;;;1.90;;
9142;SDS011;54072;47.410;8.446;2023-04-24T14:12:37;2.60;;;2.07;;
9142;SDS011;54072;47.410;8.446;2023-04-24T14:15:05;3.57;;;3.00;;
9142;SDS011;54072;47.410;8.446;2023-04-24T14:17:33;7.87;;;5.10;;
9142;SDS011;54072;47.410;8.446;2023-04-24T14:20:00;5.70;;;2.40;;
9142;SDS011;54072;47.410;8.446;2023-04-24T14:22:29;2.67;;;2.40;;
9142;SDS011;54072;47.410;8.446;2023-04-24T14:24:57;2.43;;;2.03;;
9142;SDS011;54072;47.410;8.446;2023-04-24T14:27:25;2.03;;;1.93;;
9142;SDS011;54072;47.410;8.446;2023-04-24T14:29:54;2.67;;;2.27;;
9142;SDS011;54072;47.410;8.446;2023-04-24T14:32:21;3.10;;;2.07;;
9142;SDS011;54072;47.410;8.446;2023-04-24T14:34:49;2.80;;;2.10;;
9142;SDS011;54072;47.410;8.446;2023-04-24T14:37:17;2.47;;;2.00;;
9142;SDS011;54072;47.410;8.446;2023-04-24T14:39:44;3.73;;;2.03;;
9142;SDS011;54072;47.410;8.446;2023-04-24T14:42:15;2.43;;;1.97;;
9142;SDS011;54072;47.410;8.446;2023-04-24T14:44:44;2.83;;;1.83;;
9142;SDS011;54072;47.410;8.446;2023-04-24T14:47:12;2.80;;;1.87;;
9142;SDS011;54072;47.410;8.446;2023-04-24T14:49:40;3.33;;;1.63;;
9142;SDS011;54072;47.410;8.446;2023-04-24T14:52:10;2.93;;;1.90;;
9142;SDS011;54072;47.410;8.446;2023-04-24T14:54:38;2.97;;;1.83;;
9142;SDS011;54072;47.410;8.446;2023-04-24T14:57:05;2.20;;;1.80;;
9142;SDS011;54072;47.410;8.446;2023-04-24T14:59:33;2.07;;;1.87;;
9142;SDS011;54072;47.410;8.446;2023-04-24T15:02:01;2.13;;;1.70;;
9142;SDS011;54072;47.410;8.446;2023-04-24T15:04:41;2.30;;;2.10;;
9142;SDS011;54072;47.410;8.446;2023-04-24T15:07:08;1.90;;;1.80;;
9142;SDS011;54072;47.410;8.446;2023-04-24T15:09:36;3.83;;;1.90;;
9142;SDS011;54072;47.410;8.446;2023-04-24T15:12:04;2.70;;;1.93;;
9142;SDS011;54072;47.410;8.446;2023-04-24T15:14:31;2.10;;;1.90;;
9142;SDS011;54072;47.410;8.446;2023-04-24T15:16:59;2.27;;;1.60;;